Time;durP1;ratioP1;P1;durP2;ratioP2;P2;SDS_P1;SDS_P2;PMS_P1;PMS_P2;Temp;Humidity;BMP_temperature;BMP_pressure;BME280_temperature;BME280_humidity;BME280_pressure;Samples;Min_cycle;Max_cycle;Signal;HPM_P1;HPM_P2
2023/12/20 00:00:39;;;;;;;8.90;8.40;;;6.30;86.50;;;;;;6277973;28;20237;-82
2023/12/20 00:03:42;;;;;;;9.20;8.70;;;6.30;86.40;;;;;;6288887;28;20244;-79
2023/12/20 00:06:46;;;;;;;8.87;8.27;;;6.30;86.40;;;;;;6279456;28;20229;-81
2023/12/20 00:09:49;;;;;;;8.77;8.17;;;6.30;86.30;;;;;;6282170;28;20244;-80
2023/12/20 00:12:54;;;;;;;8.57;8.07;;;6.40;86.10;;;;;;6278390;28;20724;-82
2023/12/20 00:15:57;;;;;;;8.20;7.80;;;6.40;86.00;;;;;;6270208;28;20284;-81
2023/12/20 00:19:00;;;;;;;8.40;7.80;;;6.30;86.20;;;;;;6286599;28;20228;-81
2023/12/20 00:22:04;;;;;;;7.90;7.50;;;6.40;86.20;;;;;;6285062;28;20240;-80
2023/12/20 00:25:09;;;;;;;8.40;7.73;;;6.40;86.00;;;;;;6287614;28;20233;-80
2023/12/20 00:28:16;;;;;;;8.10;7.70;;;6.40;85.90;;;;;;6285335;28;20237;-82
2023/12/20 00:31:21;;;;;;;8.20;7.77;;;6.40;85.90;;;;;;6280801;28;20269;-81
2023/12/20 00:34:24;;;;;;;8.80;8.20;;;6.30;86.20;;;;;;6283729;28;20233;-80
2023/12/20 00:37:27;;;;;;;7.97;7.23;;;6.30;86.30;;;;;;6281056;28;20749;-82
2023/12/20 00:40:30;;;;;;;8.73;8.10;;;6.40;86.10;;;;;;6284561;28;20316;-82
2023/12/20 00:43:35;;;;;;;8.53;8.03;;;6.30;86.10;;;;;;6277238;28;20320;-82
2023/12/20 00:46:38;;;;;;;8.17;7.67;;;6.30;86.20;;;;;;6279052;28;20241;-80
2023/12/20 00:49:41;;;;;;;8.87;8.37;;;6.30;86.40;;;;;;6286277;28;20316;-80
2023/12/20 00:52:44;;;;;;;7.80;7.40;;;6.30;86.50;;;;;;6279673;28;20234;-82
2023/12/20 00:55:47;;;;;;;8.57;8.07;;;6.30;86.50;;;;;;6285123;28;20249;-81
2023/12/20 00:58:52;;;;;;;8.70;8.20;;;6.30;86.60;;;;;;6283492;28;20240;-82
2023/12/20 01:01:55;;;;;;;9.13;8.53;;;6.30;86.50;;;;;;6286699;28;20287;-81
2023/12/20 01:04:58;;;;;;;8.40;8.00;;;6.30;86.50;;;;;;6269449;28;20686;-82
2023/12/20 01:08:02;;;;;;;8.87;8.30;;;6.30;86.40;;;;;;6278424;28;20233;-80
2023/12/20 01:11:06;;;;;;;8.70;8.20;;;6.30;86.50;;;;;;6278425;28;20733;-82
2023/12/20 01:14:11;;;;;;;8.40;8.00;;;6.30;86.50;;;;;;6269106;28;20265;-80
2023/12/20 01:17:14;;;;;;;8.77;8.27;;;6.30;86.60;;;;;;6278112;28;20266;-79
2023/12/20 01:20:19;;;;;;;9.53;8.67;;;6.30;86.40;;;;;;6288001;28;20446;-81
2023/12/20 01:23:23;;;;;;;9.30;8.70;;;6.30;86.60;;;;;;6288499;28;20241;-82
2023/12/20 01:26:26;;;;;;;8.93;8.33;;;6.30;86.70;;;;;;6266414;28;20237;-80
2023/12/20 01:29:31;;;;;;;9.27;8.77;;;6.30;86.70;;;;;;6285878;28;20307;-83
2023/12/20 01:32:34;;;;;;;9.43;8.93;;;6.30;86.80;;;;;;6283088;28;20234;-82
2023/12/20 01:35:37;;;;;;;8.57;8.07;;;6.30;86.90;;;;;;6266335;28;20233;-80
2023/12/20 01:38:40;;;;;;;8.23;7.73;;;6.30;87.00;;;;;;6303859;28;20279;-83
2023/12/20 01:41:43;;;;;;;8.30;7.90;;;6.30;87.00;;;;;;6278759;28;20241;-79
2023/12/20 01:44:49;;;;;;;8.17;7.70;;;6.30;87.00;;;;;;6274979;28;20252;-80
2023/12/20 01:47:53;;;;;;;8.20;7.70;;;6.30;87.20;;;;;;6294134;28;20237;-80
2023/12/20 01:50:57;;;;;;;7.90;7.50;;;6.30;87.20;;;;;;6275640;28;20240;-81
2023/12/20 01:54:01;;;;;;;7.07;6.77;;;6.40;87.00;;;;;;6287242;28;20363;-80
2023/12/20 01:57:06;;;;;;;7.40;7.10;;;6.30;87.00;;;;;;6277281;28;20229;-83
2023/12/20 02:00:14;;;;;;;6.93;6.63;;;6.30;87.10;;;;;;6270691;28;20234;-80
2023/12/20 02:03:18;;;;;;;7.60;7.20;;;6.30;87.10;;;;;;6263431;28;20317;-82
2023/12/20 02:06:24;;;;;;;6.90;6.60;;;6.30;87.10;;;;;;6292987;28;20240;-81
2023/12/20 02:09:28;;;;;;;6.80;6.50;;;6.40;87.20;;;;;;6285989;28;20241;-81
2023/12/20 02:12:31;;;;;;;6.60;6.30;;;6.40;87.20;;;;;;6285154;28;20233;-81
2023/12/20 02:15:37;;;;;;;6.17;5.97;;;6.40;87.30;;;;;;6283652;28;20752;-82
2023/12/20 02:18:40;;;;;;;6.43;5.93;;;6.40;87.20;;;;;;6281533;28;20238;-82
2023/12/20 02:21:46;;;;;;;6.47;6.17;;;6.40;87.10;;;;;;6279136;28;20238;-81
2023/12/20 02:24:50;;;;;;;5.60;5.50;;;6.40;86.60;;;;;;6282285;28;20230;-81
2023/12/20 02:27:53;;;;;;;5.00;4.90;;;6.40;86.50;;;;;;6287293;28;20228;-81
2023/12/20 02:30:56;;;;;;;5.80;5.50;;;6.40;86.40;;;;;;6271708;28;20245;-81
2023/12/20 02:34:00;;;;;;;5.87;5.67;;;6.30;86.20;;;;;;6282184;28;20621;-80
2023/12/20 02:37:04;;;;;;;5.63;5.43;;;6.30;86.40;;;;;;6289879;28;20453;-81
2023/12/20 02:40:09;;;;;;;5.70;5.60;;;6.20;86.70;;;;;;6296342;28;20437;-81
2023/12/20 02:43:12;;;;;;;5.70;5.50;;;6.30;86.70;;;;;;6282918;28;20354;-82
2023/12/20 02:46:16;;;;;;;5.90;5.63;;;6.30;86.60;;;;;;6292197;28;20236;-80
2023/12/20 02:49:20;;;;;;;6.90;6.60;;;6.40;86.40;;;;;;6295983;28;20226;-79
2023/12/20 02:52:26;;;;;;;7.03;6.73;;;6.30;86.40;;;;;;6289146;28;20772;-82
2023/12/20 02:55:31;;;;;;;6.73;6.43;;;6.40;86.40;;;;;;6290118;28;20237;-82
2023/12/20 02:58:34;;;;;;;8.10;7.60;;;6.50;85.90;;;;;;6281846;28;20717;-80
2023/12/20 03:01:43;;;;;;;7.60;7.10;;;6.40;85.80;;;;;;6282730;28;20318;-81
2023/12/20 03:04:46;;;;;;;7.67;7.03;;;6.40;85.70;;;;;;6290952;28;20237;-78
2023/12/20 03:07:51;;;;;;;8.27;7.67;;;6.40;85.60;;;;;;6283542;28;20233;-82
2023/12/20 03:10:54;;;;;;;7.93;7.33;;;6.40;85.50;;;;;;6286011;28;20837;-83
2023/12/20 03:13:58;;;;;;;8.67;7.53;;;6.30;85.50;;;;;;6287267;28;20237;-81
2023/12/20 03:17:01;;;;;;;8.07;7.47;;;6.40;85.10;;;;;;6295537;28;20240;-80
2023/12/20 03:20:06;;;;;;;7.40;6.87;;;6.40;85.10;;;;;;6284310;28;20233;-81
2023/12/20 03:23:10;;;;;;;8.03;7.37;;;6.40;85.10;;;;;;6288414;28;20252;-82
2023/12/20 03:26:14;;;;;;;6.87;6.30;;;6.30;85.20;;;;;;6289779;28;20322;-79
2023/12/20 03:29:18;;;;;;;8.43;6.10;;;6.30;85.00;;;;;;6270617;28;20800;-80
2023/12/20 03:32:21;;;;;;;6.70;6.20;;;6.40;84.90;;;;;;6287013;28;20239;-81
2023/12/20 03:35:24;;;;;;;6.27;5.80;;;6.30;84.50;;;;;;6262872;28;20280;-82
2023/12/20 03:38:29;;;;;;;9.57;5.37;;;6.40;84.20;;;;;;6272695;28;20250;-82
2023/12/20 03:41:32;;;;;;;7.33;5.27;;;6.30;83.70;;;;;;6288746;28;20921;-82
2023/12/20 03:44:35;;;;;;;5.30;4.90;;;6.20;83.80;;;;;;6277089;28;20242;-80
2023/12/20 03:47:38;;;;;;;5.40;4.93;;;6.20;84.00;;;;;;6277074;28;20252;-82
2023/12/20 03:50:41;;;;;;;8.10;5.17;;;6.20;84.00;;;;;;6289245;28;20233;-81
2023/12/20 03:53:46;;;;;;;4.90;4.60;;;6.20;84.00;;;;;;6271130;28;20250;-81
2023/12/20 03:56:49;;;;;;;8.30;5.13;;;6.30;83.70;;;;;;6288221;28;20241;-80
2023/12/20 03:59:52;;;;;;;5.40;4.83;;;6.30;83.50;;;;;;6287355;28;20727;-81
2023/12/20 04:02:55;;;;;;;4.50;4.10;;;6.30;83.20;;;;;;6280571;28;20249;-79
2023/12/20 04:05:58;;;;;;;7.13;4.47;;;6.20;83.20;;;;;;6285557;28;20248;-83
2023/12/20 04:09:03;;;;;;;6.80;4.70;;;6.20;83.00;;;;;;6263876;28;20835;-82
2023/12/20 04:12:07;;;;;;;4.90;4.40;;;6.20;82.90;;;;;;6270177;28;20226;-84
2023/12/20 04:15:11;;;;;;;4.83;4.40;;;6.10;82.80;;;;;;6271028;28;20244;-79
2023/12/20 04:18:15;;;;;;;7.23;4.37;;;6.10;82.50;;;;;;6288650;28;20229;-81
2023/12/20 04:21:18;;;;;;;5.37;4.40;;;6.10;82.50;;;;;;6289537;28;20237;-81
2023/12/20 04:24:22;;;;;;;7.60;4.43;;;6.00;82.60;;;;;;6275648;28;20283;-79
2023/12/20 04:27:26;;;;;;;6.27;4.27;;;6.00;82.70;;;;;;6287891;28;20240;-80
2023/12/20 04:30:31;;;;;;;7.23;4.53;;;6.00;82.20;;;;;;6287959;28;20237;-82
2023/12/20 04:33:34;;;;;;;6.80;5.10;;;5.90;82.00;;;;;;6279133;28;20232;-82
2023/12/20 04:36:37;;;;;;;4.83;4.30;;;6.00;81.70;;;;;;6280754;28;20229;-82
2023/12/20 04:39:42;;;;;;;5.03;4.17;;;6.00;81.40;;;;;;6282382;28;20236;-81
2023/12/20 04:42:46;;;;;;;7.47;4.60;;;6.00;81.20;;;;;;6290286;28;20308;-81
2023/12/20 04:45:49;;;;;;;9.20;4.73;;;5.90;81.20;;;;;;6287791;28;20237;-83
2023/12/20 04:48:52;;;;;;;11.23;4.53;;;5.90;81.40;;;;;;6290681;28;20253;-81
2023/12/20 04:51:56;;;;;;;6.63;3.87;;;5.80;81.40;;;;;;6285670;28;20240;-80
2023/12/20 04:55:01;;;;;;;6.37;4.30;;;5.80;81.50;;;;;;6282169;28;20719;-82
2023/12/20 04:58:04;;;;;;;6.03;4.27;;;5.70;81.70;;;;;;6287597;28;20233;-81
2023/12/20 05:01:08;;;;;;;5.13;4.13;;;5.70;81.70;;;;;;6275853;28;20279;-82
2023/12/20 05:04:11;;;;;;;4.67;4.23;;;5.60;81.90;;;;;;6301636;28;20236;-78
2023/12/20 05:07:14;;;;;;;4.90;4.50;;;5.60;82.00;;;;;;6296077;28;20316;-83
2023/12/20 05:10:21;;;;;;;9.87;5.30;;;5.70;81.80;;;;;;6273339;28;20368;-82
2023/12/20 05:13:24;;;;;;;9.47;4.80;;;5.70;81.60;;;;;;6281855;28;20325;-82
2023/12/20 05:16:44;;;;;;;8.37;4.47;;;5.70;81.50;;;;;;6283442;28;20244;-83
2023/12/20 05:19:47;;;;;;;10.13;5.53;;;5.70;81.30;;;;;;6291340;28;20245;-80
2023/12/20 05:22:50;;;;;;;8.90;4.50;;;5.70;81.20;;;;;;6290191;28;20229;-80
2023/12/20 05:25:54;;;;;;;12.57;4.57;;;5.70;81.50;;;;;;6285677;28;20245;-79
2023/12/20 05:28:58;;;;;;;6.10;4.63;;;5.60;81.40;;;;;;6283701;28;20317;-82
2023/12/20 05:32:01;;;;;;;4.67;4.27;;;5.60;81.20;;;;;;6282215;28;20256;-80
2023/12/20 05:35:04;;;;;;;6.30;4.97;;;5.60;80.90;;;;;;6273043;28;20314;-81
2023/12/20 05:38:08;;;;;;;9.37;4.43;;;5.50;80.80;;;;;;6275057;28;20224;-82
2023/12/20 05:41:13;;;;;;;11.17;4.27;;;5.50;81.00;;;;;;6284620;28;20272;-79
2023/12/20 05:44:16;;;;;;;7.40;4.43;;;5.30;80.90;;;;;;6279112;28;20233;-80
2023/12/20 05:47:19;;;;;;;6.03;4.47;;;5.30;80.80;;;;;;6281300;28;20237;-81
2023/12/20 05:50:22;;;;;;;11.37;4.63;;;5.30;80.70;;;;;;6286696;28;20357;-80
2023/12/20 05:53:25;;;;;;;9.57;4.70;;;5.20;80.90;;;;;;6272458;28;20248;-81
2023/12/20 05:56:31;;;;;;;6.60;4.50;;;5.20;81.10;;;;;;6284668;28;20245;-79
2023/12/20 05:59:35;;;;;;;8.20;4.57;;;5.00;81.40;;;;;;6284800;28;20232;-78
2023/12/20 06:02:38;;;;;;;9.47;4.63;;;5.00;81.30;;;;;;6279269;28;20753;-82
2023/12/20 06:05:41;;;;;;;8.07;4.10;;;5.00;81.40;;;;;;6271283;28;20244;-80
2023/12/20 06:08:44;;;;;;;7.20;4.70;;;5.00;81.50;;;;;;6298673;28;20241;-82
2023/12/20 06:11:49;;;;;;;9.77;5.10;;;5.00;81.60;;;;;;6280256;28;20752;-82
2023/12/20 06:14:52;;;;;;;4.43;4.07;;;4.90;81.90;;;;;;6282191;28;21277;-81
2023/12/20 06:17:55;;;;;;;8.43;4.23;;;4.90;82.00;;;;;;6284316;28;20731;-80
2023/12/20 06:20:58;;;;;;;7.87;4.70;;;4.90;81.90;;;;;;6271155;28;20323;-81
2023/12/20 06:24:02;;;;;;;7.23;5.07;;;4.90;81.80;;;;;;6285596;28;20237;-79
2023/12/20 06:27:06;;;;;;;10.73;4.40;;;4.80;81.80;;;;;;6284831;28;20259;-81
2023/12/20 06:30:10;;;;;;;5.17;4.47;;;4.90;82.00;;;;;;6281067;28;20840;-80
2023/12/20 06:33:13;;;;;;;5.93;4.23;;;4.70;82.00;;;;;;6280951;28;20359;-82
2023/12/20 06:36:16;;;;;;;8.97;4.57;;;4.80;81.90;;;;;;6263105;28;20666;-81
2023/12/20 06:39:20;;;;;;;8.33;5.10;;;4.80;81.80;;;;;;6276789;28;20236;-81
2023/12/20 06:42:24;;;;;;;8.77;5.10;;;4.90;81.70;;;;;;6274999;28;20240;-81
2023/12/20 06:45:28;;;;;;;8.53;5.33;;;4.80;81.90;;;;;;6280555;28;20242;-81
2023/12/20 06:48:31;;;;;;;4.87;4.23;;;4.80;82.00;;;;;;6287125;28;20320;-82
2023/12/20 06:51:34;;;;;;;7.13;4.97;;;4.80;82.00;;;;;;6284312;28;20229;-81
2023/12/20 06:54:37;;;;;;;9.70;4.60;;;4.80;82.00;;;;;;6288809;28;20840;-80
2023/12/20 06:57:42;;;;;;;11.03;4.83;;;4.70;82.20;;;;;;6280865;28;20326;-83
2023/12/20 07:00:45;;;;;;;5.53;5.00;;;4.70;82.10;;;;;;6276226;28;20237;-80
2023/12/20 07:03:49;;;;;;;6.73;4.93;;;4.80;82.20;;;;;;6272359;28;20849;-81
2023/12/20 07:06:56;;;;;;;12.70;5.40;;;4.80;82.30;;;;;;6283631;28;20230;-82
2023/12/20 07:09:59;;;;;;;6.40;4.83;;;4.90;82.30;;;;;;6279500;28;20906;-81
2023/12/20 07:13:05;;;;;;;12.40;5.37;;;4.80;82.10;;;;;;6272086;28;20839;-80
2023/12/20 07:16:08;;;;;;;7.03;5.17;;;4.80;82.30;;;;;;6284530;28;20825;-81
2023/12/20 07:19:11;;;;;;;10.10;5.50;;;4.80;82.30;;;;;;6287153;28;20260;-79
2023/12/20 07:22:14;;;;;;;5.77;4.90;;;4.90;81.90;;;;;;6279684;28;20921;-82
2023/12/20 07:25:17;;;;;;;9.40;4.80;;;4.90;81.90;;;;;;6296460;28;20237;-82
2023/12/20 07:28:22;;;;;;;7.00;5.13;;;4.90;81.80;;;;;;6285527;28;20237;-80
2023/12/20 07:31:25;;;;;;;7.53;4.43;;;4.90;81.60;;;;;;6286582;28;20249;-86
2023/12/20 07:34:28;;;;;;;12.27;4.60;;;5.00;81.30;;;;;;6285809;28;20238;-80
2023/12/20 07:37:32;;;;;;;9.83;5.03;;;4.90;81.20;;;;;;6286793;28;20229;-78
2023/12/20 07:40:38;;;;;;;9.50;5.17;;;5.00;81.20;;;;;;6290205;28;20755;-79
2023/12/20 07:43:43;;;;;;;6.50;4.83;;;5.00;81.20;;;;;;6285122;28;20253;-78
2023/12/20 07:46:46;;;;;;;6.47;4.43;;;5.00;81.20;;;;;;6283583;28;20237;-81
2023/12/20 07:49:51;;;;;;;8.57;4.83;;;5.00;80.90;;;;;;6283461;28;20306;-81
2023/12/20 07:52:54;;;;;;;8.13;4.43;;;5.00;80.70;;;;;;6287350;28;20721;-82
2023/12/20 07:55:57;;;;;;;6.47;4.10;;;5.00;80.50;;;;;;6287452;28;20380;-82
2023/12/20 07:59:02;;;;;;;4.80;4.40;;;5.00;80.30;;;;;;6290574;28;20943;-81
2023/12/20 08:02:05;;;;;;;11.33;4.87;;;5.00;80.30;;;;;;6282370;28;20717;-83
2023/12/20 08:05:10;;;;;;;5.43;4.80;;;5.00;80.40;;;;;;6285369;28;20234;-81
2023/12/20 08:08:13;;;;;;;9.90;4.83;;;5.00;80.00;;;;;;6286642;28;20273;-81
2023/12/20 08:11:17;;;;;;;10.20;4.70;;;5.10;80.10;;;;;;6288144;28;20229;-80
2023/12/20 08:14:22;;;;;;;8.20;4.30;;;5.10;80.00;;;;;;6283375;28;20265;-80
2023/12/20 08:17:25;;;;;;;8.93;4.97;;;5.10;79.70;;;;;;6282285;28;20261;-82
2023/12/20 08:20:28;;;;;;;6.07;5.30;;;5.10;79.60;;;;;;6288223;28;20240;-82
2023/12/20 08:23:42;;;;;;;5.30;4.03;;;5.10;79.80;;;;;;6296250;28;20249;-79
2023/12/20 08:26:46;;;;;;;10.37;4.83;;;5.20;79.70;;;;;;6281264;28;20396;-80
2023/12/20 08:29:50;;;;;;;7.83;5.17;;;5.10;80.00;;;;;;6284584;28;20229;-81
2023/12/20 08:32:54;;;;;;;8.30;4.93;;;5.10;79.80;;;;;;6294593;28;20229;-81
2023/12/20 08:35:58;;;;;;;9.43;5.23;;;5.20;79.30;;;;;;6278899;28;20242;-80
2023/12/20 08:39:03;;;;;;;8.07;5.23;;;5.20;79.30;;;;;;6287387;28;20240;-80
2023/12/20 08:42:06;;;;;;;9.50;4.70;;;5.30;79.20;;;;;;6278321;28;20237;-82
2023/12/20 08:45:11;;;;;;;6.47;4.10;;;5.30;79.30;;;;;;6286458;28;20244;-82
2023/12/20 08:48:14;;;;;;;8.17;4.70;;;5.30;79.20;;;;;;6280841;28;20884;-80
2023/12/20 08:51:17;;;;;;;7.23;4.53;;;5.30;79.40;;;;;;6285313;28;20727;-82
2023/12/20 08:54:21;;;;;;;8.47;4.60;;;5.30;79.30;;;;;;6281107;28;20237;-81
2023/12/20 08:57:25;;;;;;;10.27;4.60;;;5.40;79.00;;;;;;6270571;28;20230;-81
2023/12/20 09:00:30;;;;;;;4.67;4.20;;;5.50;78.80;;;;;;6279241;28;20249;-80
2023/12/20 09:03:33;;;;;;;7.17;4.67;;;5.50;78.80;;;;;;6281719;28;20492;-81
2023/12/20 09:06:36;;;;;;;4.47;3.93;;;5.50;78.40;;;;;;6283778;28;20639;-79
2023/12/20 09:09:39;;;;;;;6.10;4.47;;;5.50;78.50;;;;;;6286677;28;20276;-78
2023/12/20 09:12:42;;;;;;;7.43;4.93;;;5.40;79.00;;;;;;6281210;28;20742;-82
2023/12/20 09:15:47;;;;;;;6.90;4.83;;;5.50;79.00;;;;;;6283065;28;20898;-79
2023/12/20 09:18:52;;;;;;;10.87;4.40;;;5.60;78.60;;;;;;6275689;28;20237;-81
2023/12/20 09:21:56;;;;;;;8.30;4.50;;;5.60;78.10;;;;;;6283494;28;20237;-80
2023/12/20 09:24:59;;;;;;;11.10;5.10;;;5.70;78.00;;;;;;6282703;28;20229;-77
2023/12/20 09:28:02;;;;;;;10.23;5.00;;;5.80;77.40;;;;;;6285948;28;20321;-80
2023/12/20 09:31:07;;;;;;;8.47;4.43;;;5.70;77.60;;;;;;6283614;28;20257;-79
2023/12/20 09:34:10;;;;;;;11.73;5.03;;;5.70;77.70;;;;;;6279861;28;20320;-82
2023/12/20 09:37:14;;;;;;;8.00;4.57;;;5.70;77.50;;;;;;6285743;28;20740;-82
2023/12/20 09:40:20;;;;;;;4.83;4.30;;;5.70;78.10;;;;;;6283772;28;20230;-80
2023/12/20 09:43:25;;;;;;;10.83;4.73;;;5.70;77.60;;;;;;6286668;28;20834;-80
2023/12/20 09:46:36;;;;;;;6.30;5.13;;;5.80;77.20;;;;;;6277209;28;20237;-79
2023/12/20 09:49:39;;;;;;;7.90;4.63;;;5.80;77.30;;;;;;6284645;28;20232;-81
2023/12/20 09:52:44;;;;;;;7.17;4.67;;;5.80;77.00;;;;;;6281368;28;20259;-80
2023/12/20 09:55:47;;;;;;;5.80;4.40;;;5.80;77.30;;;;;;6283987;28;20367;-81
2023/12/20 09:58:50;;;;;;;5.13;4.60;;;5.80;77.00;;;;;;6276405;28;20816;-79
2023/12/20 10:01:57;;;;;;;5.93;4.77;;;5.80;77.10;;;;;;6282693;28;20237;-80
2023/12/20 10:05:03;;;;;;;13.50;5.23;;;5.80;77.20;;;;;;6282329;28;20624;-80
2023/12/20 10:08:07;;;;;;;5.43;4.93;;;5.80;76.40;;;;;;6290566;28;20232;-82
2023/12/20 10:11:10;;;;;;;9.83;5.20;;;5.80;76.60;;;;;;6289455;28;20236;-78
2023/12/20 10:14:14;;;;;;;11.07;5.17;;;5.90;76.80;;;;;;6276132;28;20233;-81
2023/12/20 10:17:18;;;;;;;7.60;4.43;;;6.00;76.10;;;;;;6277075;28;20230;-80
2023/12/20 10:20:21;;;;;;;8.73;4.60;;;6.00;75.70;;;;;;6277433;28;20226;-82
2023/12/20 10:23:26;;;;;;;8.00;4.50;;;5.90;75.90;;;;;;6284637;28;20233;-82
2023/12/20 10:26:30;;;;;;;11.50;4.63;;;6.00;75.60;;;;;;6281824;28;20320;-81
2023/12/20 10:29:35;;;;;;;9.67;5.27;;;6.00;75.60;;;;;;6281310;28;20229;-83
2023/12/20 10:32:42;;;;;;;9.50;4.93;;;5.90;75.70;;;;;;6277862;28;20241;-80
2023/12/20 10:35:45;;;;;;;5.33;4.87;;;6.00;75.70;;;;;;6279110;28;20245;-80
2023/12/20 10:38:52;;;;;;;10.87;5.80;;;5.90;75.50;;;;;;6283635;28;20751;-77
2023/12/20 10:41:55;;;;;;;4.93;4.47;;;6.00;75.50;;;;;;6283845;28;20741;-81
2023/12/20 10:45:01;;;;;;;9.73;4.60;;;6.00;75.30;;;;;;6275910;28;20252;-81
2023/12/20 10:48:06;;;;;;;5.13;4.63;;;6.00;75.20;;;;;;6277545;28;20248;-83
2023/12/20 10:51:10;;;;;;;9.43;5.20;;;6.10;75.30;;;;;;6281524;28;20917;-82
2023/12/20 10:54:13;;;;;;;9.60;5.30;;;6.10;75.00;;;;;;6280420;28;20316;-83
2023/12/20 10:57:19;;;;;;;10.10;6.80;;;6.20;74.60;;;;;;6286710;28;20728;-81
2023/12/20 11:00:24;;;;;;;5.30;4.87;;;6.10;74.60;;;;;;6279851;28;20954;-81
2023/12/20 11:03:33;;;;;;;8.37;4.47;;;6.20;74.50;;;;;;6289628;28;20233;-80
2023/12/20 11:06:43;;;;;;;11.47;5.43;;;6.20;74.20;;;;;;6289533;28;20256;-81
2023/12/20 11:09:55;;;;;;;8.57;4.93;;;6.20;74.70;;;;;;6284086;28;20234;-82
2023/12/20 11:13:09;;;;;;;12.43;5.03;;;6.20;74.00;;;;;;6291193;28;20312;-79
2023/12/20 11:16:16;;;;;;;7.73;5.17;;;6.20;74.50;;;;;;6286573;28;20252;-82
2023/12/20 11:19:20;;;;;;;6.70;4.70;;;6.30;74.50;;;;;;6294471;28;20225;-80
2023/12/20 11:22:25;;;;;;;7.90;5.53;;;6.30;75.20;;;;;;6287715;28;20312;-83
2023/12/20 11:25:28;;;;;;;9.33;5.33;;;6.10;75.60;;;;;;6277048;28;20253;-81
2023/12/20 11:28:31;;;;;;;11.83;5.00;;;6.10;76.00;;;;;;6287735;28;20244;-80
2023/12/20 11:31:41;;;;;;;12.20;5.13;;;6.10;76.20;;;;;;6281907;28;20618;-80
2023/12/20 11:34:46;;;;;;;11.13;5.70;;;6.00;76.40;;;;;;6283163;28;20639;-80
2023/12/20 11:37:49;;;;;;;7.67;4.90;;;6.10;76.20;;;;;;6284775;28;20247;-83
2023/12/20 11:40:55;;;;;;;7.63;5.10;;;6.10;76.30;;;;;;6280580;28;20292;-78
2023/12/20 11:44:00;;;;;;;9.93;5.00;;;6.10;76.40;;;;;;6281969;28;20233;-82
2023/12/20 11:47:04;;;;;;;6.67;4.73;;;6.00;76.50;;;;;;6288642;28;20275;-82
2023/12/20 11:50:09;;;;;;;7.10;5.10;;;6.00;76.50;;;;;;6275339;28;20240;-78
2023/12/20 11:53:13;;;;;;;6.53;5.40;;;6.00;77.00;;;;;;6266422;28;20241;-81
2023/12/20 11:56:16;;;;;;;9.80;4.83;;;6.00;77.00;;;;;;6280088;28;20230;-80
2023/12/20 11:59:19;;;;;;;8.47;5.10;;;6.00;77.20;;;;;;6294311;28;20313;-82
2023/12/20 12:02:26;;;;;;;6.73;4.67;;;6.00;77.30;;;;;;6292883;28;20237;-78
2023/12/20 12:05:32;;;;;;;6.03;4.70;;;6.00;77.30;;;;;;6290166;28;20241;-77
2023/12/20 12:08:36;;;;;;;11.67;7.97;;;6.00;77.00;;;;;;6272976;28;20756;-82
2023/12/20 12:11:40;;;;;;;7.07;5.23;;;6.10;77.20;;;;;;6283586;28;20248;-80
2023/12/20 12:14:43;;;;;;;7.53;5.37;;;6.20;76.50;;;;;;6285736;28;20245;-79
2023/12/20 12:17:54;;;;;;;6.83;5.10;;;6.20;76.20;;;;;;6292225;28;20296;-83
2023/12/20 12:21:03;;;;;;;9.37;4.97;;;6.30;76.20;;;;;;6294294;28;20236;-79
2023/12/20 12:28:07;;;;;;;6.90;4.47;;;6.30;75.80;;;;;;6291381;28;20255;-78
2023/12/20 12:31:15;;;;;;;6.80;4.60;;;6.20;75.50;;;;;;6288251;28;20234;-83
2023/12/20 12:34:19;;;;;;;7.00;5.37;;;6.20;76.00;;;;;;6285705;28;20256;-82
2023/12/20 12:37:24;;;;;;;7.37;5.00;;;6.20;76.40;;;;;;6285663;28;20257;-84
2023/12/20 12:40:28;;;;;;;6.83;4.73;;;6.20;76.40;;;;;;6279020;28;20709;-81
2023/12/20 12:43:31;;;;;;;8.13;5.10;;;6.10;76.80;;;;;;6285603;28;20604;-79
2023/12/20 12:46:37;;;;;;;6.77;5.03;;;6.10;77.20;;;;;;6275537;28;20226;-81
2023/12/20 12:49:41;;;;;;;5.80;4.70;;;6.00;78.10;;;;;;6290523;28;20276;-79
2023/12/20 12:52:46;;;;;;;7.87;4.87;;;5.90;78.60;;;;;;6271979;28;20351;-82
2023/12/20 12:55:50;;;;;;;6.93;5.30;;;5.90;78.60;;;;;;6294328;28;20241;-84
2023/12/20 13:02:41;;;;;;;7.53;5.50;;;5.90;79.20;;;;;;6280236;28;20375;-82
2023/12/20 13:05:45;;;;;;;7.63;5.07;;;5.90;78.90;;;;;;6287624;28;20267;-82
2023/12/20 13:08:50;;;;;;;8.03;5.13;;;6.00;78.70;;;;;;6280044;28;20233;-80
2023/12/20 13:11:53;;;;;;;12.87;5.80;;;5.90;79.20;;;;;;6284036;28;20765;-85
2023/12/20 13:14:58;;;;;;;9.13;5.30;;;5.80;79.40;;;;;;6276057;28;20237;-82
2023/12/20 13:18:01;;;;;;;10.93;5.70;;;5.80;79.80;;;;;;6273873;28;20249;-82
2023/12/20 13:21:05;;;;;;;7.13;5.50;;;5.60;80.50;;;;;;6270306;28;20236;-83
2023/12/20 13:24:09;;;;;;;5.87;5.47;;;5.60;80.90;;;;;;6279132;28;20241;-82
2023/12/20 13:27:13;;;;;;;4.53;4.30;;;5.60;81.50;;;;;;6286271;28;20244;-81
2023/12/20 13:30:18;;;;;;;5.07;4.17;;;5.50;80.90;;;;;;6277235;28;20241;-79
2023/12/20 13:33:21;;;;;;;4.10;3.90;;;5.20;80.30;;;;;;6270860;28;20236;-83
2023/12/20 13:36:24;;;;;;;4.20;3.90;;;5.10;80.70;;;;;;6279518;28;20240;-82
2023/12/20 13:39:29;;;;;;;3.43;3.33;;;5.00;80.40;;;;;;6281832;28;20229;-83
2023/12/20 13:42:32;;;;;;;4.07;3.80;;;5.00;79.40;;;;;;6278665;28;20249;-78
2023/12/20 13:45:35;;;;;;;4.30;4.00;;;5.00;79.30;;;;;;6282735;28;20241;-78
2023/12/20 13:48:39;;;;;;;3.70;3.60;;;5.00;78.80;;;;;;6283058;28;21502;-83
2023/12/20 13:51:42;;;;;;;2.97;2.80;;;5.00;79.00;;;;;;6285443;28;20310;-80
2023/12/20 13:54:47;;;;;;;3.60;3.30;;;5.00;77.90;;;;;;6284963;28;20248;-81
2023/12/20 13:57:50;;;;;;;3.70;3.50;;;5.00;78.10;;;;;;6288897;28;20241;-83
2023/12/20 14:00:58;;;;;;;5.00;3.70;;;4.90;77.60;;;;;;6288534;28;20365;-74
2023/12/20 14:04:01;;;;;;;4.03;3.73;;;4.90;77.50;;;;;;6286210;28;20263;-78
2023/12/20 14:07:04;;;;;;;4.87;3.90;;;4.80;78.10;;;;;;6285728;28;20233;-85
2023/12/20 14:10:10;;;;;;;3.77;3.43;;;4.80;78.40;;;;;;6289117;28;20241;-81
2023/12/20 14:13:13;;;;;;;3.80;3.50;;;4.90;78.40;;;;;;6286335;28;20338;-81
2023/12/20 14:16:16;;;;;;;4.07;3.77;;;4.90;78.40;;;;;;6291266;28;20656;-79
2023/12/20 14:19:19;;;;;;;3.77;3.67;;;4.80;78.50;;;;;;6290536;28;20240;-81
2023/12/20 14:22:24;;;;;;;3.50;3.20;;;4.80;78.00;;;;;;6295068;28;20229;-79
2023/12/20 14:25:29;;;;;;;4.43;3.53;;;4.90;77.90;;;;;;6286671;28;20249;-82
2023/12/20 14:28:41;;;;;;;3.30;3.13;;;4.80;78.00;;;;;;6276099;28;20237;-79
2023/12/20 14:31:44;;;;;;;3.20;3.17;;;4.90;77.90;;;;;;6292079;28;20817;-78
2023/12/20 14:34:48;;;;;;;3.40;3.30;;;4.90;77.70;;;;;;6286980;28;20241;-80
2023/12/20 14:37:51;;;;;;;2.97;2.93;;;4.90;77.50;;;;;;6287513;28;20245;-79
2023/12/20 14:40:56;;;;;;;3.20;3.00;;;4.90;77.90;;;;;;6281181;28;20249;-80
2023/12/20 14:43:59;;;;;;;3.07;3.00;;;4.90;77.50;;;;;;6286096;28;20236;-79
2023/12/20 14:47:03;;;;;;;4.33;3.30;;;4.90;77.00;;;;;;6291512;28;20225;-81
2023/12/20 14:50:07;;;;;;;2.97;2.90;;;4.90;77.30;;;;;;6288379;28;20313;-78
2023/12/20 14:53:11;;;;;;;3.20;3.00;;;4.90;77.20;;;;;;6295448;28;20232;-80
2023/12/20 14:56:16;;;;;;;3.43;3.23;;;4.90;77.00;;;;;;6297025;28;20659;-78
2023/12/20 14:59:19;;;;;;;3.60;3.40;;;4.90;77.00;;;;;;6291402;28;20736;-81
2023/12/20 15:02:22;;;;;;;3.33;3.23;;;4.90;77.10;;;;;;6286805;28;20301;-79
2023/12/20 15:05:26;;;;;;;3.23;3.00;;;4.90;77.40;;;;;;6293761;28;20233;-78
2023/12/20 15:08:30;;;;;;;4.27;4.03;;;4.90;77.70;;;;;;6293771;28;20705;-82
2023/12/20 15:11:35;;;;;;;3.47;3.27;;;5.00;77.60;;;;;;6296707;28;20361;-82
2023/12/20 15:14:38;;;;;;;3.83;3.53;;;5.00;77.60;;;;;;6286168;28;20248;-79
2023/12/20 15:17:41;;;;;;;3.40;3.20;;;5.00;77.80;;;;;;6297198;28;20252;-80
2023/12/20 15:20:45;;;;;;;3.80;3.47;;;5.00;77.90;;;;;;6293507;28;20251;-80
2023/12/20 15:23:52;;;;;;;3.63;3.47;;;5.00;77.70;;;;;;6287407;28;20253;-81
2023/12/20 15:26:57;;;;;;;4.00;3.60;;;5.00;78.10;;;;;;6285399;28;20249;-82
2023/12/20 15:30:00;;;;;;;4.50;3.70;;;4.90;78.20;;;;;;6286632;28;20318;-81
2023/12/20 15:33:03;;;;;;;4.83;3.47;;;4.90;78.30;;;;;;6267002;28;20260;-85
2023/12/20 15:36:09;;;;;;;3.37;3.27;;;4.80;78.30;;;;;;6283136;28;20236;-81
2023/12/20 15:39:14;;;;;;;3.80;3.50;;;4.70;78.20;;;;;;6285056;28;20233;-81
2023/12/20 15:42:19;;;;;;;3.87;3.67;;;4.70;78.20;;;;;;6292466;28;20238;-76
2023/12/20 15:45:22;;;;;;;4.73;3.90;;;4.70;78.30;;;;;;6298754;28;20287;-81
2023/12/20 15:48:28;;;;;;;4.03;3.63;;;4.70;78.20;;;;;;6289721;28;20637;-82
2023/12/20 15:51:34;;;;;;;4.00;3.60;;;4.70;78.30;;;;;;6282769;28;20233;-80
2023/12/20 15:54:39;;;;;;;4.17;3.87;;;4.70;78.30;;;;;;6283481;28;20233;-84
2023/12/20 15:57:44;;;;;;;3.97;3.67;;;4.60;78.30;;;;;;6290445;28;20247;-84
2023/12/20 16:00:56;;;;;;;3.57;3.40;;;4.60;78.10;;;;;;6280020;28;20289;-76
2023/12/20 16:04:00;;;;;;;3.63;3.37;;;4.60;78.30;;;;;;6282167;28;20230;-82
2023/12/20 16:07:04;;;;;;;3.30;3.20;;;4.50;78.30;;;;;;6287514;28;20283;-81
2023/12/20 16:10:08;;;;;;;4.93;4.00;;;4.50;78.30;;;;;;6277499;28;20280;-82
2023/12/20 16:13:13;;;;;;;3.73;3.60;;;4.50;78.10;;;;;;6286764;28;20308;-81
2023/12/20 16:16:16;;;;;;;3.70;3.50;;;4.50;78.20;;;;;;6279548;28;20244;-80